Time;durP1;ratioP1;P1;durP2;ratioP2;P2;SDS_P1;SDS_P2;PMS_P1;PMS_P2;Temp;Humidity;BMP_temperature;BMP_pressure;BME280_temperature;BME280_humidity;BME280_pressure;Samples;Min_cycle;Max_cycle;Signal;HPM_P1;HPM_P2
2023/06/03 00:01:18;;;;;;;;;;;;;;;13.31;57.74316;102370.2;;;;-69
2023/06/03 00:02:32;;;;;;;0.2;0.1;;;;;;;;;;;;;-69
2023/06/03 00:06:17;;;;;;;;;;;;;;;13.32;57.71191;102369;;;;-68
2023/06/03 00:11:17;;;;;;;;;;;;;;;13.29;57.65234;102368.8;;;;-71
2023/06/03 00:16:17;;;;;;;;;;;;;;;13.23;58.01367;102367;;;;-68
2023/06/03 00:21:17;;;;;;;;;;;;;;;13.21;58.0791;102366.6;;;;-68
2023/06/03 00:26:17;;;;;;;;;;;;;;;13.17;57.78223;102372.5;;;;-71
2023/06/03 00:31:17;;;;;;;;;;;;;;;13.13;57.79883;102371.8;;;;-70
2023/06/03 00:32:32;;;;;;;0.2;0.1;;;;;;;;;;;;;-68
2023/06/03 00:36:17;;;;;;;;;;;;;;;13.1;57.99707;102376.7;;;;-70
2023/06/03 00:41:18;;;;;;;;;;;;;;;13.05;57.82129;102371.8;;;;-69
2023/06/03 00:46:17;;;;;;;;;;;;;;;12.99;57.61328;102369.1;;;;-69
2023/06/03 00:51:18;;;;;;;;;;;;;;;12.93;57.67285;102368;;;;-70
2023/06/03 00:56:17;;;;;;;;;;;;;;;12.88;57.66406;102366.5;;;;-68
2023/06/03 01:01:19;;;;;;;;;;;;;;;12.87;57.56348;102365;;;;-69
2023/06/03 01:02:43;;;;;;;0.2;0.1;;;;;;;;;;;;;-68
2023/06/03 01:06:21;;;;;;;;;;;;;;;12.82;57.71289;102363.6;;;;-69
2023/06/03 01:11:20;;;;;;;;;;;;;;;12.78;57.74219;102360.4;;;;-69
2023/06/03 01:16:19;;;;;;;;;;;;;;;12.79;57.60742;102362.5;;;;-69
2023/06/03 01:21:17;;;;;;;;;;;;;;;12.73;57.54492;102360;;;;-72
2023/06/03 01:26:19;;;;;;;;;;;;;;;12.72;57.45508;102360.9;;;;-69
2023/06/03 01:31:17;;;;;;;;;;;;;;;12.68;57.40332;102362.2;;;;-71
2023/06/03 01:32:34;;;;;;;0.3;0.2;;;;;;;;;;;;;-70
2023/06/03 01:36:17;;;;;;;;;;;;;;;12.65;57.42188;102360.8;;;;-69
2023/06/03 01:41:18;;;;;;;;;;;;;;;12.64;57.30957;102365.2;;;;-68
2023/06/03 01:46:17;;;;;;;;;;;;;;;12.61;57.26074;102368.8;;;;-69
2023/06/03 01:51:17;;;;;;;;;;;;;;;12.57;57.38965;102374;;;;-69
2023/06/03 01:56:17;;;;;;;;;;;;;;;12.52;57.37305;102381.3;;;;-69
2023/06/03 02:01:17;;;;;;;;;;;;;;;12.48;57.28711;102384.8;;;;-68
2023/06/03 02:02:36;;;;;;;0.2;0.1;;;;;;;;;;;;;-71
2023/06/03 02:06:20;;;;;;;;;;;;;;;12.46;57.11816;102387.2;;;;-69
2023/06/03 02:11:17;;;;;;;;;;;;;;;12.4;57.16602;102382;;;;-70
2023/06/03 02:16:17;;;;;;;;;;;;;;;12.38;57.16406;102384.5;;;;-69
2023/06/03 02:21:17;;;;;;;;;;;;;;;12.36;57.19531;102378.7;;;;-70
2023/06/03 02:26:17;;;;;;;;;;;;;;;12.34;57.06934;102371.2;;;;-69
2023/06/03 02:31:17;;;;;;;;;;;;;;;12.28;57.00391;102362.1;;;;-67
2023/06/03 02:32:37;;;;;;;0.2;0.1;;;;;;;;;;;;;-69
2023/06/03 02:36:18;;;;;;;;;;;;;;;12.24;56.91113;102370.8;;;;-69
2023/06/03 02:41:17;;;;;;;;;;;;;;;12.23;56.89746;102365.5;;;;-70
2023/06/03 02:46:17;;;;;;;;;;;;;;;12.19;56.81445;102364.2;;;;-69
2023/06/03 02:51:17;;;;;;;;;;;;;;;12.15;56.95508;102363;;;;-69
2023/06/03 02:56:17;;;;;;;;;;;;;;;12.1;56.79102;102363.3;;;;-69
2023/06/03 03:01:17;;;;;;;;;;;;;;;12.09;56.74414;102366.8;;;;-69
2023/06/03 03:02:39;;;;;;;0.2;0.1;;;;;;;;;;;;;-69
2023/06/03 03:06:19;;;;;;;;;;;;;;;12.09;56.5791;102369;;;;-69
2023/06/03 03:11:17;;;;;;;;;;;;;;;12.03;56.55859;102369;;;;-70
2023/06/03 03:16:17;;;;;;;;;;;;;;;11.95;56.39258;102374.9;;;;-70
2023/06/03 03:21:19;;;;;;;;;;;;;;;11.91;56.25195;102372.3;;;;-70
2023/06/03 03:26:17;;;;;;;;;;;;;;;11.87;56.19043;102371.7;;;;-69
2023/06/03 03:31:18;;;;;;;;;;;;;;;11.82;56.20703;102367;;;;-69
2023/06/03 03:32:39;;;;;;;0.2;0.1;;;;;;;;;;;;;-68
2023/06/03 03:36:20;;;;;;;;;;;;;;;11.77;56.10059;102369.5;;;;-69
2023/06/03 03:41:17;;;;;;;;;;;;;;;11.72;56.31836;102369.1;;;;-69
2023/06/03 03:46:17;;;;;;;;;;;;;;;11.68;56.17871;102369.6;;;;-69
2023/06/03 03:51:17;;;;;;;;;;;;;;;11.68;56.10059;102370.8;;;;-68
2023/06/03 03:56:20;;;;;;;;;;;;;;;11.69;56.0332;102373.4;;;;-69
2023/06/03 04:01:18;;;;;;;;;;;;;;;11.64;56.11816;102375.5;;;;-69
2023/06/03 04:02:45;;;;;;;0.2;0.1;;;;;;;;;;;;;-71
2023/06/03 04:06:27;;;;;;;;;;;;;;;11.65;56.12988;102375.7;;;;-71
2023/06/03 04:11:20;;;;;;;;;;;;;;;11.65;55.97363;102378.5;;;;-68
2023/06/03 04:16:27;;;;;;;;;;;;;;;11.65;55.98535;102382.5;;;;-68
2023/06/03 04:21:22;;;;;;;;;;;;;;;11.68;56;102386.1;;;;-69
2023/06/03 04:26:19;;;;;;;;;;;;;;;11.69;55.69922;102391.5;;;;-71
2023/06/03 04:31:17;;;;;;;;;;;;;;;11.72;55.69238;102384.5;;;;-72
2023/06/03 04:32:41;;;;;;;0.2;0.1;;;;;;;;;;;;;-73
2023/06/03 04:36:17;;;;;;;;;;;;;;;11.72;55.66895;102384.5;;;;-70
2023/06/03 04:45:16;;;;;;;;;;;;;;;11.79;55.76758;102385.8;;;;-70
2023/06/03 04:50:17;;;;;;;;;;;;;;;11.82;55.57031;102390;;;;-69
2023/06/03 04:55:19;;;;;;;;;;;;;;;11.88;55.45508;102391.7;;;;-71
2023/06/03 05:00:19;;;;;;;;;;;;;;;11.91;55.59375;102393.1;;;;-70
2023/06/03 05:02:44;;;;;;;0.2;0.1;;;;;;;;;;;;;-70
2023/06/03 05:05:16;;;;;;;;;;;;;;;11.97;55.46582;102394.4;;;;-68
2023/06/03 05:10:16;;;;;;;;;;;;;;;12.03;55.58496;102400.1;;;;-70
2023/06/03 05:15:17;;;;;;;;;;;;;;;12.14;55.8457;102405.4;;;;-69
2023/06/03 05:20:16;;;;;;;;;;;;;;;12.31;56.09082;102402.4;;;;-68
2023/06/03 05:25:16;;;;;;;;;;;;;;;12.8;55.39258;102402.1;;;;-72
2023/06/03 05:30:17;;;;;;;;;;;;;;;13.57;54.34473;102405.7;;;;-70
2023/06/03 05:32:43;;;;;;;0.2;0.1;;;;;;;;;;;;;-70
2023/06/03 05:35:19;;;;;;;;;;;;;;;14.26;52.43848;102405.8;;;;-71
2023/06/03 05:40:16;;;;;;;;;;;;;;;14.89;51.75977;102404.3;;;;-70
2023/06/03 05:45:16;;;;;;;;;;;;;;;15.45;50.85449;102406.2;;;;-71
2023/06/03 05:50:16;;;;;;;;;;;;;;;15.93;49.9043;102412.1;;;;-69
2023/06/03 05:55:16;;;;;;;;;;;;;;;16.48;49.59375;102416;;;;-69
2023/06/03 06:00:17;;;;;;;;;;;;;;;17.01;48.80176;102405.2;;;;-69
2023/06/03 06:02:44;;;;;;;0.3;0.1;;;;;;;;;;;;;-71
2023/06/03 06:05:16;;;;;;;;;;;;;;;17.55;47.84082;102411.8;;;;-70
2023/06/03 06:10:16;;;;;;;;;;;;;;;17.97;47.31738;102409.8;;;;-69
2023/06/03 06:15:16;;;;;;;;;;;;;;;18.3;46.88672;102408;;;;-68
2023/06/03 06:20:17;;;;;;;;;;;;;;;18.68;46.37988;102409.7;;;;-70
2023/06/03 06:25:16;;;;;;;;;;;;;;;19.02;46.03906;102410.9;;;;-70
2023/06/03 06:30:21;;;;;;;;;;;;;;;19.43;45.43164;102413;;;;-69
2023/06/03 06:32:50;;;;;;;0.2;0.1;;;;;;;;;;;;;-70
2023/06/03 06:35:17;;;;;;;;;;;;;;;19.8;44.8877;102418;;;;-69
2023/06/03 06:40:19;;;;;;;;;;;;;;;20.01;44.53125;102412.4;;;;-68
2023/06/03 06:45:18;;;;;;;;;;;;;;;20.25;44.15527;102408.3;;;;-69
2023/06/03 06:50:24;;;;;;;;;;;;;;;20.53;43.61133;102405.4;;;;-71
2023/06/03 06:55:26;;;;;;;;;;;;;;;20.89;43.25684;102404.8;;;;-69
2023/06/03 07:00:17;;;;;;;;;;;;;;;21.17;43.24902;102412.2;;;;-69
2023/06/03 07:02:49;;;;;;;0.2;0.1;;;;;;;;;;;;;-70
2023/06/03 07:05:16;;;;;;;;;;;;;;;21.41;42.55078;102406.6;;;;-72
2023/06/03 07:10:16;;;;;;;;;;;;;;;21.77;41.95313;102408.7;;;;-69
2023/06/03 07:15:27;;;;;;;;;;;;;;;21.87;41.84766;102409.1;;;;-71
2023/06/03 07:20:21;;;;;;;;;;;;;;;22.08;41.52344;102410.8;;;;-69
2023/06/03 07:25:17;;;;;;;;;;;;;;;22.18;41.42871;102414;;;;-72
2023/06/03 07:30:20;;;;;;;;;;;;;;;22.37;41.12402;102413;;;;-69
2023/06/03 07:32:51;;;;;;;0.2;0;;;;;;;;;;;;;-69
2023/06/03 07:35:16;;;;;;;;;;;;;;;22.59;40.69531;102419.3;;;;-72
2023/06/03 07:40:21;;;;;;;;;;;;;;;22.61;40.83594;102423.2;;;;-68
2023/06/03 07:45:17;;;;;;;;;;;;;;;22.72;41.14453;102430.3;;;;-69
2023/06/03 07:50:26;;;;;;;;;;;;;;;22.74;41.27344;102428.5;;;;-70
2023/06/03 07:55:17;;;;;;;;;;;;;;;22.93;41.32617;102437.3;;;;-70
2023/06/03 08:00:18;;;;;;;;;;;;;;;22.96;41.27148;102437.4;;;;-72
2023/06/03 08:02:54;;;;;;;0.2;0;;;;;;;;;;;;;-68
2023/06/03 08:05:18;;;;;;;;;;;;;;;23.12;41.2041;102442.5;;;;-69
2023/06/03 08:10:22;;;;;;;;;;;;;;;23.32;41.13184;102438.8;;;;-70
2023/06/03 08:15:22;;;;;;;;;;;;;;;23.46;40.98242;102448.1;;;;-71
2023/06/03 08:20:16;;;;;;;;;;;;;;;23.56;40.76074;102439.6;;;;-69
2023/06/03 08:25:16;;;;;;;;;;;;;;;23.71;40.63672;102440.5;;;;-71
2023/06/03 08:30:16;;;;;;;;;;;;;;;23.86;40.61523;102441.2;;;;-68
2023/06/03 08:32:58;;;;;;;0.2;0;;;;;;;;;;;;;-70
2023/06/03 08:35:20;;;;;;;;;;;;;;;23.88;40.74414;102442.9;;;;-70
2023/06/03 08:40:21;;;;;;;;;;;;;;;24.06;40.32129;102442.2;;;;-69
2023/06/03 08:45:17;;;;;;;;;;;;;;;24.2;40.01074;102439.1;;;;-70
2023/06/03 08:50:19;;;;;;;;;;;;;;;24.34;40;102432.5;;;;-71
2023/06/03 08:55:18;;;;;;;;;;;;;;;24.51;39.26367;102435.4;;;;-69
2023/06/03 09:00:17;;;;;;;;;;;;;;;24.73;39.20313;102436;;;;-70
2023/06/03 09:03:02;;;;;;;0.2;0;;;;;;;;;;;;;-69
2023/06/03 09:05:16;;;;;;;;;;;;;;;24.87;39.16895;102432.8;;;;-69
2023/06/03 09:10:16;;;;;;;;;;;;;;;25.21;38.25977;102431.8;;;;-68
2023/06/03 09:15:17;;;;;;;;;;;;;;;25.47;37.76074;102427;;;;-68
2023/06/03 09:20:17;;;;;;;;;;;;;;;25.77;37.62305;102425.6;;;;-68
2023/06/03 09:25:17;;;;;;;;;;;;;;;26.01;37.24902;102426;;;;-67
2023/06/03 09:30:16;;;;;;;;;;;;;;;26.18;37.06543;102421.9;;;;-68
2023/06/03 09:33:05;;;;;;;0.2;0;;;;;;;;;;;;;-69
2023/06/03 09:35:16;;;;;;;;;;;;;;;26.39;36.02637;102428.9;;;;-68
2023/06/03 09:40:26;;;;;;;;;;;;;;;26.48;36.53125;102426.2;;;;-67
2023/06/03 09:45:25;;;;;;;;;;;;;;;26.66;35.68652;102423.4;;;;-69
2023/06/03 09:50:16;;;;;;;;;;;;;;;26.82;35.09473;102426.8;;;;-69
2023/06/03 09:55:17;;;;;;;;;;;;;;;27;35.12012;102428.6;;;;-68
2023/06/03 10:00:17;;;;;;;;;;;;;;;27.12;35.17676;102429.9;;;;-68
2023/06/03 10:03:13;;;;;;;0.2;0.1;;;;;;;;;;;;;-68
2023/06/03 10:05:27;;;;;;;;;;;;;;;27.33;33.8291;102426.1;;;;-70
2023/06/03 10:10:16;;;;;;;;;;;;;;;27.31;34.02539;102433.4;;;;-67
2023/06/03 10:15:17;;;;;;;;;;;;;;;27.32;33.57129;102427.4;;;;-66
2023/06/03 10:20:26;;;;;;;;;;;;;;;27.37;33.10938;102427.5;;;;-69
2023/06/03 10:25:16;;;;;;;;;;;;;;;27.48;31.86914;102426.2;;;;-68
2023/06/03 10:30:18;;;;;;;;;;;;;;;27.48;31.82227;102416.6;;;;-67
2023/06/03 10:33:15;;;;;;;0.2;0;;;;;;;;;;;;;-68
2023/06/03 10:35:16;;;;;;;;;;;;;;;27.49;31.96484;102429.5;;;;-68
2023/06/03 10:40:17;;;;;;;;;;;;;;;27.48;32.79004;102430;;;;-68
2023/06/03 10:45:17;;;;;;;;;;;;;;;27.61;30.96777;102438.5;;;;-67
2023/06/03 10:50:22;;;;;;;;;;;;;;;27.56;31.22266;102429.1;;;;-67
2023/06/03 10:55:21;;;;;;;;;;;;;;;27.61;31.97168;102431.9;;;;-68
2023/06/03 11:00:16;;;;;;;;;;;;;;;27.82;32.81543;102432.6;;;;-67
2023/06/03 11:03:18;;;;;;;0.2;0;;;;;;;;;;;;;-68
2023/06/03 11:05:27;;;;;;;;;;;;;;;27.87;31.10352;102423.1;;;;-67
2023/06/03 11:10:27;;;;;;;;;;;;;;;28.04;31.72266;102425.4;;;;-69
2023/06/03 11:15:16;;;;;;;;;;;;;;;28.2;32.01367;102419.5;;;;-67
2023/06/03 11:20:26;;;;;;;;;;;;;;;28.36;31.99023;102423.4;;;;-68
2023/06/03 11:25:29;;;;;;;;;;;;;;;28.51;32.08301;102429.5;;;;-67
2023/06/03 11:30:17;;;;;;;;;;;;;;;28.65;31.48535;102428.9;;;;-68
2023/06/03 11:33:25;;;;;;;0.1;0;;;;;;;;;;;;;-69
2023/06/03 11:35:33;;;;;;;;;;;;;;;28.71;31.29004;102422.4;;;;-67
2023/06/03 11:40:17;;;;;;;;;;;;;;;28.8;31.60059;102428.2;;;;-67
2023/06/03 11:45:28;;;;;;;;;;;;;;;29;30.98145;102421.1;;;;-68
2023/06/03 11:50:16;;;;;;;;;;;;;;;29.06;30.64746;102423.2;;;;-68
2023/06/03 11:55:25;;;;;;;;;;;;;;;29.05;30.38867;102426.9;;;;-67
2023/06/03 12:00:18;;;;;;;;;;;;;;;29.1;30.75488;102419;;;;-69
2023/06/03 12:03:27;;;;;;;0.2;0;;;;;;;;;;;;;-67
2023/06/03 12:05:17;;;;;;;;;;;;;;;29.25;31.49121;102417.1;;;;-69
2023/06/03 12:10:16;;;;;;;;;;;;;;;29.43;30.36719;102410.6;;;;-68
2023/06/03 12:15:16;;;;;;;;;;;;;;;29.49;31.23828;102411.6;;;;-67
2023/06/03 12:20:25;;;;;;;;;;;;;;;29.62;30.49707;102415.2;;;;-66
2023/06/03 12:25:26;;;;;;;;;;;;;;;29.68;30.00879;102411.4;;;;-67
2023/06/03 12:30:17;;;;;;;;;;;;;;;29.67;30.94629;102405.7;;;;-66
2023/06/03 12:33:45;;;;;;;0.1;0;;;;;;;;;;;;;-69
2023/06/03 12:35:16;;;;;;;;;;;;;;;29.84;31.04004;102414.8;;;;-68
2023/06/03 12:40:25;;;;;;;;;;;;;;;29.89;30.79688;102413.9;;;;-68
2023/06/03 12:45:26;;;;;;;;;;;;;;;29.96;29.74609;102408.7;;;;-67
2023/06/03 12:50:18;;;;;;;;;;;;;;;30.1;30.56445;102413.9;;;;-70
2023/06/03 12:55:16;;;;;;;;;;;;;;;30.12;30.70703;102411.8;;;;-68
2023/06/03 13:00:19;;;;;;;;;;;;;;;30.3;29.55664;102416.5;;;;-67
2023/06/03 13:03:38;;;;;;;0.2;0;;;;;;;;;;;;;-69
2023/06/03 13:05:16;;;;;;;;;;;;;;;30.31;29.72168;102409.3;;;;-69
2023/06/03 13:10:17;;;;;;;;;;;;;;;30.28;29.77832;102407.8;;;;-68
2023/06/03 13:15:16;;;;;;;;;;;;;;;30.36;29.50195;102405.8;;;;-69
2023/06/03 13:20:16;;;;;;;;;;;;;;;30.45;28.99023;102406.5;;;;-67
2023/06/03 13:25:16;;;;;;;;;;;;;;;30.51;29.60547;102402.6;;;;-68
2023/06/03 13:33:42;;;;;;;0.1;0;;;;;;;;;;;;;-68
2023/06/03 13:35:18;;;;;;;;;;;;;;;30.59;29.14063;102391;;;;-69
2023/06/03 13:40:16;;;;;;;;;;;;;;;30.71;28.4668;102393.5;;;;-68
2023/06/03 13:45:16;;;;;;;;;;;;;;;30.64;28.76758;102391.9;;;;-68
2023/06/03 13:52:14;;;;;;;;;;;;;;;30.59;27.98828;102386.5;;;;-70
2023/06/03 13:57:14;;;;;;;;;;;;;;;30.55;28.2334;102374.2;;;;-67
2023/06/03 14:02:16;;;;;;;;;;;;;;;30.59;28.78809;102370.4;;;;-68
2023/06/03 14:03:47;;;;;;;0.1;0;;;;;;;;;;;;;-68
2023/06/03 14:07:14;;;;;;;;;;;;;;;30.59;27.68262;102357.6;;;;-67
2023/06/03 14:12:14;;;;;;;;;;;;;;;30.57;26.95215;102360.6;;;;-69
2023/06/03 14:17:14;;;;;;;;;;;;;;;30.52;27.4668;102359.3;;;;-68
2023/06/03 14:22:14;;;;;;;;;;;;;;;30.48;27.13477;102362.8;;;;-69
2023/06/03 14:27:14;;;;;;;;;;;;;;;30.32;27.50195;102357.9;;;;-69
2023/06/03 14:32:17;;;;;;;;;;;;;;;30.27;26.81738;102354.2;;;;-68
2023/06/03 14:33:53;;;;;;;0.1;0;;;;;;;;;;;;;-68
2023/06/03 14:37:14;;;;;;;;;;;;;;;30.25;27.5918;102346.7;;;;-69
2023/06/03 14:42:14;;;;;;;;;;;;;;;30.35;27.52734;102351.5;;;;-68
2023/06/03 14:47:14;;;;;;;;;;;;;;;30.3;27.03125;102343.8;;;;-67
2023/06/03 14:52:14;;;;;;;;;;;;;;;30.27;27.65137;102334.3;;;;-67
2023/06/03 14:57:14;;;;;;;;;;;;;;;30.3;27.62988;102333.8;;;;-69
2023/06/03 15:02:14;;;;;;;;;;;;;;;30.35;27.13965;102335.5;;;;-70
2023/06/03 15:03:58;;;;;;;0.2;0;;;;;;;;;;;;;-67
2023/06/03 15:07:17;;;;;;;;;;;;;;;30.12;27.62988;102330.4;;;;-68
2023/06/03 15:12:15;;;;;;;;;;;;;;;30.08;27.38184;102326.7;;;;-67
2023/06/03 15:17:18;;;;;;;;;;;;;;;29.97;27.15137;102314.6;;;;-73
2023/06/03 15:22:16;;;;;;;;;;;;;;;29.85;27.07422;102315.9;;;;-68
2023/06/03 15:27:18;;;;;;;;;;;;;;;29.82;26.48535;102309.6;;;;-68
2023/06/03 15:32:14;;;;;;;;;;;;;;;29.65;26.31055;102305.3;;;;-67
2023/06/03 15:34:04;;;;;;;0.2;0;;;;;;;;;;;;;-69
2023/06/03 15:37:14;;;;;;;;;;;;;;;29.47;27.0752;102298.8;;;;-67
2023/06/03 15:42:17;;;;;;;;;;;;;;;29.37;26.92773;102303.3;;;;-68
2023/06/03 15:47:14;;;;;;;;;;;;;;;29.19;27.30469;102305;;;;-68
2023/06/03 15:52:17;;;;;;;;;;;;;;;29.19;27.80859;102295.7;;;;-67
2023/06/03 15:57:14;;;;;;;;;;;;;;;29.15;28.37988;102300;;;;-69
2023/06/03 16:02:15;;;;;;;;;;;;;;;29.1;28.35352;102292.6;;;;-69
2023/06/03 16:04:08;;;;;;;0.2;0.1;;;;;;;;;;;;;-69
2023/06/03 16:07:14;;;;;;;;;;;;;;;29.11;28.84668;102290.6;;;;-70
2023/06/03 16:12:15;;;;;;;;;;;;;;;29.03;28.83008;102289.8;;;;-68
2023/06/03 16:17:14;;;;;;;;;;;;;;;28.9;28.68066;102285.3;;;;-70
2023/06/03 16:22:14;;;;;;;;;;;;;;;28.76;29.08203;102288.3;;;;-67
2023/06/03 16:27:15;;;;;;;;;;;;;;;28.6;28.93066;102288.2;;;;-68
2023/06/03 16:32:14;;;;;;;;;;;;;;;28.51;28.41016;102288.9;;;;-66
2023/06/03 16:34:12;;;;;;;0.3;0.1;;;;;;;;;;;;;-66
2023/06/03 16:37:14;;;;;;;;;;;;;;;28.31;29.28711;102285.9;;;;-68
2023/06/03 16:42:14;;;;;;;;;;;;;;;28.1;29.00391;102284.6;;;;-66
2023/06/03 16:47:14;;;;;;;;;;;;;;;27.93;30.1377;102281.1;;;;-67
2023/06/03 16:52:14;;;;;;;;;;;;;;;27.77;30.25586;102283.6;;;;-67
2023/06/03 16:57:14;;;;;;;;;;;;;;;27.58;30.65137;102280.3;;;;-67
2023/06/03 17:02:15;;;;;;;;;;;;;;;27.46;30.99414;102278.3;;;;-67
2023/06/03 17:04:18;;;;;;;0.2;0;;;;;;;;;;;;;-67
2023/06/03 17:07:14;;;;;;;;;;;;;;;27.24;31.08301;102278.5;;;;-70
2023/06/03 17:12:14;;;;;;;;;;;;;;;27.04;31.34961;102280.1;;;;-67
2023/06/03 17:17:15;;;;;;;;;;;;;;;26.89;31.57129;102274.9;;;;-68
2023/06/03 17:22:14;;;;;;;;;;;;;;;26.74;31.41016;102273.5;;;;-67
2023/06/03 17:27:14;;;;;;;;;;;;;;;26.4;31.49121;102276.4;;;;-65
2023/06/03 17:32:14;;;;;;;;;;;;;;;26.12;31.72656;102267.4;;;;-67
2023/06/03 17:34:22;;;;;;;0.4;0.1;;;;;;;;;;;;;-66
2023/06/03 17:37:14;;;;;;;;;;;;;;;25.89;31.95508;102268.7;;;;-67
2023/06/03 17:42:14;;;;;;;;;;;;;;;25.6;31.7832;102270.8;;;;-69
2023/06/03 17:47:14;;;;;;;;;;;;;;;25.31;31.98438;102272.7;;;;-69
2023/06/03 17:52:14;;;;;;;;;;;;;;;25.09;32.15332;102270.7;;;;-67
2023/06/03 17:57:16;;;;;;;;;;;;;;;24.91;32.58105;102270.8;;;;-70
2023/06/03 18:02:14;;;;;;;;;;;;;;;24.68;33.08594;102273.8;;;;-70
2023/06/03 18:04:27;;;;;;;0.3;0.1;;;;;;;;;;;;;-66
2023/06/03 18:07:14;;;;;;;;;;;;;;;24.47;33.10547;102279.2;;;;-68
2023/06/03 18:12:14;;;;;;;;;;;;;;;24.25;33.13574;102277.1;;;;-72
2023/06/03 18:17:14;;;;;;;;;;;;;;;23.99;33.34668;102279.9;;;;-73
2023/06/03 18:22:15;;;;;;;;;;;;;;;23.8;33.51855;102285.3;;;;-74
2023/06/03 18:27:14;;;;;;;;;;;;;;;23.67;33.25391;102288.2;;;;-73
2023/06/03 18:32:14;;;;;;;;;;;;;;;23.54;33.54492;102288.1;;;;-73
2023/06/03 18:34:31;;;;;;;0.2;0;;;;;;;;;;;;;-75
2023/06/03 18:37:15;;;;;;;;;;;;;;;23.43;33.75684;102291.4;;;;-73
2023/06/03 18:42:14;;;;;;;;;;;;;;;23.29;33.87207;102289.9;;;;-70
2023/06/03 18:47:14;;;;;;;;;;;;;;;23.11;33.89355;102295.6;;;;-69
2023/06/03 18:52:14;;;;;;;;;;;;;;;22.88;34.32617;102298.7;;;;-72
2023/06/03 18:57:14;;;;;;;;;;;;;;;22.65;34.21582;102298.3;;;;-69
2023/06/03 19:02:14;;;;;;;;;;;;;;;22.39;35.19922;102301.6;;;;-69
2023/06/03 19:04:34;;;;;;;0.2;0;;;;;;;;;;;;;-68
2023/06/03 19:07:14;;;;;;;;;;;;;;;22.09;34.93359;102301.8;;;;-70
2023/06/03 19:12:14;;;;;;;;;;;;;;;21.89;34.80273;102311.2;;;;-71
2023/06/03 19:17:14;;;;;;;;;;;;;;;21.66;35.39355;102311.9;;;;-69
2023/06/03 19:22:14;;;;;;;;;;;;;;;21.39;35.44238;102317.1;;;;-73
2023/06/03 19:27:14;;;;;;;;;;;;;;;21.16;36.28418;102319.4;;;;-71
2023/06/03 19:32:14;;;;;;;;;;;;;;;20.95;36.0498;102315.9;;;;-69
2023/06/03 19:34:37;;;;;;;0.2;0;;;;;;;;;;;;;-69
2023/06/03 19:37:14;;;;;;;;;;;;;;;20.72;36.73047;102318.1;;;;-69
2023/06/03 19:42:14;;;;;;;;;;;;;;;20.5;36.79297;102323.6;;;;-70
2023/06/03 19:47:14;;;;;;;;;;;;;;;20.27;36.93457;102328.2;;;;-71
2023/06/03 19:52:14;;;;;;;;;;;;;;;20.04;37.70605;102337.7;;;;-70
2023/06/03 19:57:14;;;;;;;;;;;;;;;19.86;37.58691;102331.1;;;;-70
2023/06/03 20:02:14;;;;;;;;;;;;;;;19.64;38.01563;102337.5;;;;-69
2023/06/03 20:04:40;;;;;;;0.2;0.1;;;;;;;;;;;;;-68
2023/06/03 20:07:14;;;;;;;;;;;;;;;19.46;38.29688;102343.6;;;;-69
2023/06/03 20:12:14;;;;;;;;;;;;;;;19.25;38.38184;102351;;;;-69
2023/06/03 20:17:15;;;;;;;;;;;;;;;19.07;38.55957;102355;;;;-69
2023/06/03 20:22:15;;;;;;;;;;;;;;;18.89;38.875;102365.3;;;;-69
2023/06/03 20:27:15;;;;;;;;;;;;;;;18.72;39.16797;102371.8;;;;-69
2023/06/03 20:32:16;;;;;;;;;;;;;;;18.56;39.31348;102375.3;;;;-70
2023/06/03 20:34:43;;;;;;;0.2;0.1;;;;;;;;;;;;;-70
2023/06/03 20:37:14;;;;;;;;;;;;;;;18.38;39.51465;102382;;;;-70
2023/06/03 20:42:14;;;;;;;;;;;;;;;18.22;39.77344;102381.4;;;;-70
2023/06/03 20:47:19;;;;;;;;;;;;;;;18.08;39.9668;102379.1;;;;-70
2023/06/03 20:52:14;;;;;;;;;;;;;;;17.9;40.37109;102385.5;;;;-69
2023/06/03 20:57:14;;;;;;;;;;;;;;;17.77;40.58691;102386.5;;;;-69
2023/06/03 21:02:14;;;;;;;;;;;;;;;17.66;40.66797;102391.4;;;;-69
2023/06/03 21:04:45;;;;;;;0.2;0;;;;;;;;;;;;;-71
2023/06/03 21:07:14;;;;;;;;;;;;;;;17.5;41.1875;102386.3;;;;-70
2023/06/03 21:12:14;;;;;;;;;;;;;;;17.34;41.58301;102384.3;;;;-69
2023/06/03 21:17:14;;;;;;;;;;;;;;;17.24;42.0498;102378.7;;;;-70
2023/06/03 21:22:14;;;;;;;;;;;;;;;17.08;41.89941;102380.5;;;;-70
2023/06/03 21:27:15;;;;;;;;;;;;;;;16.96;42.47754;102384.2;;;;-70
2023/06/03 21:32:14;;;;;;;;;;;;;;;16.89;42.7207;102389.4;;;;-71
2023/06/03 21:34:47;;;;;;;0.2;0.1;;;;;;;;;;;;;-69
2023/06/03 21:37:14;;;;;;;;;;;;;;;16.79;42.62109;102394.4;;;;-71
2023/06/03 21:42:15;;;;;;;;;;;;;;;16.67;42.91602;102394.9;;;;-70
2023/06/03 21:47:14;;;;;;;;;;;;;;;16.55;43.33398;102395.3;;;;-70
2023/06/03 21:52:14;;;;;;;;;;;;;;;16.47;43.47266;102396.7;;;;-69
2023/06/03 21:57:15;;;;;;;;;;;;;;;16.37;43.70215;102398.2;;;;-71
2023/06/03 22:02:14;;;;;;;;;;;;;;;16.23;43.83594;102399.5;;;;-69
2023/06/03 22:04:50;;;;;;;1.7;0.7;;;;;;;;;;;;;-69
2023/06/03 22:07:14;;;;;;;;;;;;;;;16.17;44.02246;102403.8;;;;-68
2023/06/03 22:12:16;;;;;;;;;;;;;;;16.04;43.95313;102405.4;;;;-68
2023/06/03 22:17:14;;;;;;;;;;;;;;;15.98;44.0498;102407;;;;-69
2023/06/03 22:22:14;;;;;;;;;;;;;;;15.88;43.94922;102402.6;;;;-69
2023/06/03 22:27:14;;;;;;;;;;;;;;;15.79;44.41504;102411;;;;-70
2023/06/03 22:32:14;;;;;;;;;;;;;;;15.71;44.21484;102408.8;;;;-70
2023/06/03 22:34:51;;;;;;;0.2;0.1;;;;;;;;;;;;;-70
2023/06/03 22:37:17;;;;;;;;;;;;;;;15.62;44.34082;102409.3;;;;-68
2023/06/03 22:42:14;;;;;;;;;;;;;;;15.53;44.69434;102413.2;;;;-69
2023/06/03 22:47:15;;;;;;;;;;;;;;;15.5;44.69043;102412.3;;;;-69
2023/06/03 22:52:15;;;;;;;;;;;;;;;15.37;44.53027;102419.8;;;;-68
2023/06/03 22:57:14;;;;;;;;;;;;;;;15.28;44.83887;102423.1;;;;-69
2023/06/03 23:02:14;;;;;;;;;;;;;;;15.23;44.49316;102417.7;;;;-69
2023/06/03 23:04:54;;;;;;;0.2;0.1;;;;;;;;;;;;;-69
2023/06/03 23:07:14;;;;;;;;;;;;;;;15.16;44.65723;102422.8;;;;-70
2023/06/03 23:12:15;;;;;;;;;;;;;;;15.06;44.99707;102423.7;;;;-72
2023/06/03 23:17:14;;;;;;;;;;;;;;;15.02;45.24121;102419.3;;;;-69
2023/06/03 23:22:14;;;;;;;;;;;;;;;14.97;44.99805;102419.9;;;;-69
2023/06/03 23:27:14;;;;;;;;;;;;;;;14.9;45.21777;102427.6;;;;-71
2023/06/03 23:32:14;;;;;;;;;;;;;;;14.81;45.56934;102420.5;;;;-69
2023/06/03 23:34:55;;;;;;;0.2;0.1;;;;;;;;;;;;;-69
2023/06/03 23:37:14;;;;;;;;;;;;;;;14.7;45.39941;102426;;;;-69
2023/06/03 23:42:17;;;;;;;;;;;;;;;14.67;45.47559;102422.9;;;;-69
2023/06/03 23:47:14;;;;;;;;;;;;;;;14.62;45.49316;102423.6;;;;-68
2023/06/03 23:52:14;;;;;;;;;;;;;;;14.53;45.77637;102422.8;;;;-71
2023/06/03 23:57:14;;;;;;;;;;;;;;;14.45;45.70117;102424;;;;-71
